ジッダ の空港の天気 - METARとTAF

キング・アブドゥルアズィーズ国際空港(ジッダ) ( OEJN / JED ) - サウジアラビア ジッダ
飛行場実況気象(Metar)
観測時間01/19 14:00 AST (01/19 11:00 UTC)
風向・風速北西 7m/s
視程10km以上
天気現象
全天の4割程度の雲 雲底高度 1220m
気温27℃
湿度48%
気圧1014hPa
METAROEJN 191100Z 31014KT 9999 SCT040 27/15 Q1014 NOSIG
過去の天気等 Google飛行場航空写真 Wunderground天気予報

過去48時間のMETAR

飛行場予報(TAF)
発表時間: 1/19 08:00 AST (1/19 05:00 UTC)
予報対象時間: 19日9時 AST ~ 20日15時 AST
風向・風速北北東 3m/s
視程7000m
少しの雲 雲底高度 1220m
19日9時 AST ~ 19日11時 AST に徐々に
風向・風速北北西 7m/s
TAF OEJN 190500Z 1906/2012 03006KT 7000 FEW040
BECMG 1906/1908 33014KT